createdAt,value
2022-12-18T00:00:18.891Z,50.60
2022-12-18T00:01:18.917Z,52.20
2022-12-18T00:02:18.881Z,51.20
2022-12-18T00:03:18.938Z,52.10
2022-12-18T00:04:18.893Z,51.80
2022-12-18T00:05:18.849Z,51.30
2022-12-18T00:06:18.853Z,51.00
2022-12-18T00:07:18.850Z,52.40
2022-12-18T00:08:18.831Z,55.30
2022-12-18T00:09:18.837Z,51.70
2022-12-18T00:10:18.809Z,53.30
2022-12-18T00:11:18.819Z,55.50
2022-12-18T00:13:19.813Z,62.20
2022-12-18T00:14:18.788Z,59.80
2022-12-18T00:15:18.804Z,53.20
2022-12-18T00:16:18.812Z,58.30
2022-12-18T00:17:18.780Z,60.20
2022-12-18T00:18:20.730Z,60.10
2022-12-18T00:19:19.889Z,62.10
2022-12-18T00:20:18.748Z,64.80
2022-12-18T00:21:18.735Z,58.70
2022-12-18T00:22:18.745Z,64.50
2022-12-18T00:23:18.744Z,68.90
2022-12-18T00:24:18.731Z,62.30
2022-12-18T00:25:18.718Z,60.50
2022-12-18T00:26:18.708Z,60.00
2022-12-18T00:27:18.708Z,47.80
2022-12-18T00:28:18.722Z,51.80
2022-12-18T00:29:18.708Z,52.70
2022-12-18T00:30:18.704Z,59.40
2022-12-18T00:31:18.763Z,56.60
2022-12-18T00:32:18.676Z,61.50
2022-12-18T00:33:18.676Z,65.20
2022-12-18T00:34:18.706Z,65.90
2022-12-18T00:35:18.659Z,59.60
2022-12-18T00:36:18.655Z,63.70
2022-12-18T00:37:20.360Z,65.10
2022-12-18T00:38:19.644Z,66.10
2022-12-18T00:39:18.648Z,69.60
2022-12-18T00:40:18.640Z,71.90
2022-12-18T00:41:18.617Z,61.80
2022-12-18T00:42:18.620Z,58.90
2022-12-18T00:43:18.608Z,57.50
2022-12-18T00:44:18.605Z,52.80
2022-12-18T00:45:18.604Z,53.70
2022-12-18T00:46:18.681Z,51.70
2022-12-18T00:47:18.574Z,57.80
2022-12-18T00:48:18.570Z,57.60
2022-12-18T00:49:18.584Z,55.00
2022-12-18T00:50:18.558Z,57.50
2022-12-18T00:51:18.553Z,57.00
2022-12-18T00:52:18.554Z,53.50
2022-12-18T00:53:18.538Z,54.20
2022-12-18T00:54:18.553Z,52.10
2022-12-18T00:55:18.533Z,54.10
2022-12-18T00:56:18.524Z,46.30
2022-12-18T00:57:18.511Z,50.30
2022-12-18T00:58:18.517Z,52.70
2022-12-18T00:59:18.534Z,47.90
2022-12-18T01:00:18.497Z,49.60
2022-12-18T01:01:18.599Z,50.20
2022-12-18T01:02:18.649Z,49.40
2022-12-18T01:03:18.584Z,52.10
2022-12-18T01:04:18.482Z,49.70
2022-12-18T01:05:18.466Z,49.60
2022-12-18T01:06:18.458Z,50.40
2022-12-18T01:07:18.461Z,49.10
2022-12-18T01:08:18.444Z,49.80
2022-12-18T01:09:18.434Z,51.10
2022-12-18T01:10:18.436Z,49.60
2022-12-18T01:11:18.437Z,54.20
2022-12-18T01:12:18.408Z,53.10
2022-12-18T01:13:18.417Z,48.30
2022-12-18T01:14:18.396Z,50.60
2022-12-18T01:15:18.408Z,52.20
2022-12-18T01:16:18.457Z,50.70
2022-12-18T01:17:18.382Z,50.30
2022-12-18T01:18:18.371Z,53.50
2022-12-18T01:19:18.382Z,54.00
2022-12-18T01:20:18.366Z,50.60
2022-12-18T01:21:18.369Z,50.60
2022-12-18T01:22:18.353Z,51.50
2022-12-18T01:23:18.344Z,48.90
2022-12-18T01:24:18.335Z,49.60
2022-12-18T01:25:18.356Z,49.30
2022-12-18T01:26:18.312Z,52.80
2022-12-18T01:27:18.322Z,49.50
2022-12-18T01:28:18.327Z,51.10
2022-12-18T01:29:18.300Z,51.70
2022-12-18T01:30:18.315Z,54.30
2022-12-18T01:31:18.337Z,54.40
2022-12-18T01:32:18.292Z,51.70
2022-12-18T01:33:18.268Z,52.40
2022-12-18T01:34:18.273Z,53.10
2022-12-18T01:35:18.260Z,50.00
2022-12-18T01:36:18.254Z,49.20
2022-12-18T01:37:18.254Z,47.10
2022-12-18T01:38:18.261Z,48.30
2022-12-18T01:39:18.233Z,52.90
2022-12-18T01:40:19.230Z,55.10
2022-12-18T01:41:18.212Z,49.80
2022-12-18T01:42:18.210Z,51.40
2022-12-18T01:43:18.229Z,48.40
2022-12-18T01:44:18.205Z,50.40
2022-12-18T01:45:18.193Z,49.50
2022-12-18T01:46:18.241Z,50.80
2022-12-18T01:47:18.189Z,50.10
2022-12-18T01:48:18.197Z,49.70
2022-12-18T01:49:18.176Z,52.20
2022-12-18T01:50:18.161Z,49.70
2022-12-18T01:51:18.156Z,49.10
2022-12-18T01:52:18.157Z,48.80
2022-12-18T01:53:18.141Z,49.80
2022-12-18T01:54:18.159Z,52.70
2022-12-18T01:55:18.159Z,52.10
2022-12-18T01:56:18.118Z,51.40
2022-12-18T01:57:18.114Z,53.00
2022-12-18T01:58:18.124Z,51.70
2022-12-18T01:59:18.116Z,50.70
2022-12-18T02:00:18.087Z,48.70
2022-12-18T02:01:18.216Z,45.90
2022-12-18T02:02:18.198Z,48.50
2022-12-18T02:03:18.120Z,48.70
2022-12-18T02:04:18.075Z,48.70
2022-12-18T02:05:18.077Z,56.50
2022-12-18T02:06:18.051Z,60.50
2022-12-18T02:07:18.063Z,63.10
2022-12-18T02:08:18.038Z,60.20
2022-12-18T02:09:18.033Z,57.60
2022-12-18T02:10:18.044Z,59.50
2022-12-18T02:11:18.019Z,57.30
2022-12-18T02:12:18.002Z,54.90
2022-12-18T02:13:18.102Z,57.90
2022-12-18T02:14:18.004Z,57.20
2022-12-18T02:15:17.996Z,61.10
2022-12-18T02:16:18.050Z,60.30
2022-12-18T02:17:18.012Z,63.10
2022-12-18T02:18:17.975Z,72.90
2022-12-18T02:19:17.971Z,62.10
2022-12-18T02:20:17.979Z,56.80
2022-12-18T02:21:17.954Z,56.10
2022-12-18T02:22:18.510Z,59.40
2022-12-18T02:23:17.936Z,57.80
2022-12-18T02:24:17.958Z,54.20
2022-12-18T02:25:17.959Z,52.90
2022-12-18T02:26:17.979Z,55.40
2022-12-18T02:27:17.919Z,53.30
2022-12-18T02:28:17.934Z,53.90
2022-12-18T02:29:18.002Z,53.40
2022-12-18T02:30:17.933Z,56.20
2022-12-18T02:31:17.968Z,52.70
2022-12-18T02:32:17.899Z,55.70
2022-12-18T02:33:17.891Z,56.10
2022-12-18T02:34:17.888Z,51.40
2022-12-18T02:35:17.891Z,48.60
2022-12-18T02:36:17.887Z,48.40
2022-12-18T02:37:17.876Z,48.40
2022-12-18T02:38:17.859Z,50.50
2022-12-18T02:39:17.854Z,49.20
2022-12-18T02:40:17.863Z,50.40
2022-12-18T02:41:17.867Z,48.80
2022-12-18T02:42:17.840Z,50.30
2022-12-18T02:43:17.849Z,52.80
2022-12-18T02:44:17.828Z,53.50
2022-12-18T02:45:17.912Z,57.60
2022-12-18T02:46:17.902Z,58.50
2022-12-18T02:47:17.807Z,58.40
2022-12-18T02:48:17.817Z,61.50
2022-12-18T02:49:17.794Z,58.70
2022-12-18T02:50:17.791Z,61.00
2022-12-18T02:51:17.808Z,63.10
2022-12-18T02:52:17.796Z,58.70
2022-12-18T02:53:17.780Z,62.20
2022-12-18T02:54:17.784Z,66.60
2022-12-18T02:55:17.773Z,62.70
2022-12-18T02:56:17.766Z,59.70
2022-12-18T02:57:17.794Z,61.90
2022-12-18T02:58:17.739Z,61.00
2022-12-18T02:59:17.745Z,59.80
2022-12-18T03:00:17.729Z,58.40
2022-12-18T03:01:17.934Z,62.90
2022-12-18T03:02:18.060Z,60.20
2022-12-18T03:03:17.804Z,61.80
2022-12-18T03:04:17.717Z,58.50
2022-12-18T03:05:17.723Z,57.30
2022-12-18T03:06:17.708Z,54.50
2022-12-18T03:07:17.720Z,58.40
2022-12-18T03:08:17.713Z,55.50
2022-12-18T03:09:17.691Z,57.50
2022-12-18T03:10:17.687Z,58.10
2022-12-18T03:11:17.692Z,59.70
2022-12-18T03:12:17.694Z,59.00
2022-12-18T03:13:17.661Z,64.50
2022-12-18T03:14:17.672Z,59.00
2022-12-18T03:15:18.140Z,60.00
2022-12-18T03:16:18.679Z,56.10
2022-12-18T03:17:17.745Z,58.20
2022-12-18T03:18:17.644Z,54.50
2022-12-18T03:19:17.939Z,52.90
2022-12-18T03:20:17.637Z,52.30
2022-12-18T03:21:17.615Z,46.40
2022-12-18T03:22:17.616Z,48.30
2022-12-18T03:23:17.627Z,47.90
2022-12-18T03:24:17.615Z,45.40
2022-12-18T03:25:17.613Z,51.60
2022-12-18T03:26:17.611Z,50.60
2022-12-18T03:27:17.590Z,56.20
2022-12-18T03:28:17.590Z,57.80
2022-12-18T03:29:17.591Z,57.20
2022-12-18T03:30:17.584Z,48.10
2022-12-18T03:31:17.638Z,50.40
2022-12-18T03:32:17.573Z,41.60
2022-12-18T03:33:17.673Z,39.30
2022-12-18T03:34:17.548Z,33.40
2022-12-18T03:35:17.566Z,31.70
2022-12-18T03:36:17.582Z,30.40
2022-12-18T03:37:17.541Z,31.70
2022-12-18T03:38:18.375Z,35.30
2022-12-18T03:39:17.529Z,37.70
2022-12-18T03:40:17.540Z,32.70
2022-12-18T03:41:17.534Z,36.20
2022-12-18T03:42:17.519Z,41.50
2022-12-18T03:43:17.522Z,42.70
2022-12-18T03:44:17.523Z,41.80
2022-12-18T03:45:17.503Z,40.40
2022-12-18T03:46:17.604Z,42.30
2022-12-18T03:47:17.505Z,36.40
2022-12-18T03:48:17.512Z,43.20
2022-12-18T03:49:22.963Z,41.40
2022-12-18T03:50:24.444Z,38.00
2022-12-18T03:51:18.562Z,34.60
2022-12-18T03:52:17.475Z,37.80
2022-12-18T03:53:17.495Z,33.80
2022-12-18T03:54:17.476Z,34.20
2022-12-18T03:55:17.462Z,39.40
2022-12-18T03:56:17.473Z,37.10
2022-12-18T03:57:17.459Z,38.30
2022-12-18T03:58:17.477Z,36.00
2022-12-18T03:59:17.463Z,42.10
2022-12-18T04:00:17.440Z,40.60
2022-12-18T04:01:17.569Z,42.10
2022-12-18T04:02:17.635Z,43.40
2022-12-18T04:03:17.501Z,51.10
2022-12-18T04:04:17.474Z,43.10
2022-12-18T04:05:17.438Z,35.30
2022-12-18T04:06:17.466Z,39.90
2022-12-18T04:07:17.503Z,40.00
2022-12-18T04:08:43.846Z,44.80
2022-12-18T04:09:17.404Z,44.50
2022-12-18T04:10:17.398Z,46.00
2022-12-18T04:11:17.398Z,42.90
2022-12-18T04:12:17.398Z,46.60
2022-12-18T04:13:17.394Z,47.10
2022-12-18T04:14:18.179Z,47.30
2022-12-18T04:15:18.391Z,43.40
2022-12-18T04:16:17.422Z,39.80
2022-12-18T04:17:17.379Z,40.50
2022-12-18T04:18:17.363Z,47.60
2022-12-18T04:19:17.378Z,55.50
2022-12-18T04:20:17.372Z,59.00
2022-12-18T04:21:17.350Z,68.60
2022-12-18T04:22:17.354Z,58.10
2022-12-18T04:23:17.437Z,52.10
2022-12-18T04:24:17.345Z,62.80
2022-12-18T04:25:17.325Z,69.80
2022-12-18T04:26:17.334Z,66.90
2022-12-18T04:27:17.339Z,74.40
2022-12-18T04:28:17.330Z,69.10
2022-12-18T04:29:17.318Z,58.30
2022-12-18T04:30:17.320Z,49.00
2022-12-18T04:31:17.348Z,50.50
2022-12-18T04:32:17.310Z,53.40
2022-12-18T04:33:17.320Z,51.40
2022-12-18T04:34:17.294Z,44.80
2022-12-18T04:35:17.303Z,44.50
2022-12-18T04:36:17.324Z,45.60
2022-12-18T04:37:17.300Z,45.90
2022-12-18T04:38:17.280Z,47.40
2022-12-18T04:39:17.381Z,45.50
2022-12-18T04:40:17.275Z,43.40
2022-12-18T04:41:17.259Z,45.60
2022-12-18T04:42:17.260Z,39.30
2022-12-18T04:43:17.373Z,41.90
2022-12-18T04:44:17.251Z,41.30
2022-12-18T04:45:17.268Z,42.70
2022-12-18T04:46:17.332Z,41.90
2022-12-18T04:47:17.244Z,42.60
2022-12-18T04:48:17.248Z,41.30
2022-12-18T04:49:17.227Z,38.40
2022-12-18T04:50:17.252Z,37.60
2022-12-18T04:51:18.989Z,41.20
2022-12-18T04:52:18.228Z,39.20
2022-12-18T04:53:17.222Z,43.40
2022-12-18T04:54:17.215Z,48.80
2022-12-18T04:55:17.304Z,44.00
2022-12-18T04:56:17.230Z,45.50
2022-12-18T04:57:17.226Z,45.00
2022-12-18T04:58:17.212Z,42.20
2022-12-18T04:59:17.190Z,38.80
2022-12-18T05:00:17.202Z,41.10
2022-12-18T05:01:17.308Z,42.20
2022-12-18T05:02:17.280Z,42.10
2022-12-18T05:03:17.242Z,41.10
2022-12-18T05:04:17.226Z,39.90
2022-12-18T05:05:17.177Z,41.60
2022-12-18T05:06:17.169Z,43.40
2022-12-18T05:07:17.178Z,39.10
2022-12-18T05:08:17.166Z,44.60
2022-12-18T05:09:17.165Z,44.50
2022-12-18T05:10:17.154Z,40.50
2022-12-18T05:11:17.236Z,42.20
2022-12-18T05:12:17.169Z,43.30
2022-12-18T05:13:18.010Z,42.60
2022-12-18T05:14:17.137Z,43.40
2022-12-18T05:15:17.150Z,41.80
2022-12-18T05:16:17.337Z,44.80
2022-12-18T05:17:17.153Z,41.20
2022-12-18T05:18:17.121Z,39.80
2022-12-18T05:19:17.116Z,42.60
2022-12-18T05:20:17.132Z,42.70
2022-12-18T05:21:17.117Z,39.50
2022-12-18T05:22:17.115Z,37.70
2022-12-18T05:23:17.116Z,37.30
2022-12-18T05:24:17.105Z,39.00
2022-12-18T05:25:17.095Z,37.40
2022-12-18T05:26:17.087Z,32.90
2022-12-18T05:27:17.178Z,36.00
2022-12-18T05:28:17.107Z,40.00
2022-12-18T05:29:17.131Z,38.70
2022-12-18T05:30:17.062Z,25.60
2022-12-18T05:31:17.142Z,26.70
2022-12-18T05:32:17.068Z,33.70
2022-12-18T05:33:17.087Z,27.30
2022-12-18T05:34:17.055Z,29.60
2022-12-18T05:35:17.068Z,30.30
2022-12-18T05:36:17.070Z,43.00
2022-12-18T05:37:17.028Z,46.90
2022-12-18T05:38:17.124Z,46.30
2022-12-18T05:39:17.128Z,43.80
2022-12-18T05:40:17.030Z,45.90
2022-12-18T05:41:17.027Z,46.50
2022-12-18T05:42:17.019Z,45.40
2022-12-18T05:43:21.177Z,46.90
2022-12-18T05:44:18.023Z,47.60
2022-12-18T05:45:17.023Z,46.90
2022-12-18T05:46:17.089Z,46.00
2022-12-18T05:47:17.003Z,46.70
2022-12-18T05:48:17.004Z,44.90
2022-12-18T05:49:17.108Z,46.10
2022-12-18T05:50:17.004Z,46.70
2022-12-18T05:51:16.988Z,44.60
2022-12-18T05:52:16.979Z,45.40
2022-12-18T05:53:16.971Z,47.80
2022-12-18T05:54:17.015Z,48.50
2022-12-18T05:55:16.983Z,46.10
2022-12-18T05:56:16.981Z,46.50
2022-12-18T05:57:16.966Z,53.70
2022-12-18T05:58:16.947Z,55.80
2022-12-18T05:59:17.062Z,51.80
2022-12-18T06:00:16.969Z,50.20
2022-12-18T06:01:16.998Z,53.00
2022-12-18T06:02:17.017Z,53.50
2022-12-18T06:03:17.061Z,48.70
2022-12-18T06:04:17.065Z,46.60
2022-12-18T06:05:16.931Z,49.30
2022-12-18T06:06:16.918Z,48.50
2022-12-18T06:07:16.923Z,46.90
2022-12-18T06:08:16.903Z,48.00
2022-12-18T06:09:16.935Z,45.80
2022-12-18T06:10:16.898Z,48.40
2022-12-18T06:11:16.901Z,45.70
2022-12-18T06:12:16.906Z,44.30
2022-12-18T06:13:16.903Z,46.50
2022-12-18T06:14:16.877Z,46.70
2022-12-18T06:15:17.976Z,46.20
2022-12-18T06:16:16.998Z,47.20
2022-12-18T06:17:16.880Z,49.60
2022-12-18T06:18:16.861Z,46.30
2022-12-18T06:19:16.868Z,46.10
2022-12-18T06:20:16.900Z,47.40
2022-12-18T06:21:16.840Z,47.40
2022-12-18T06:22:16.852Z,46.10
2022-12-18T06:23:16.856Z,44.10
2022-12-18T06:24:16.841Z,48.50
2022-12-18T06:25:16.855Z,46.50
2022-12-18T06:26:17.848Z,46.10
2022-12-18T06:27:16.826Z,45.30
2022-12-18T06:28:16.828Z,47.10
2022-12-18T06:29:16.844Z,45.70
2022-12-18T06:30:16.817Z,44.80
2022-12-18T06:31:17.006Z,56.10
2022-12-18T06:32:16.811Z,80.00
2022-12-18T06:33:16.799Z,88.00
2022-12-18T06:34:16.803Z,83.70
2022-12-18T06:35:16.811Z,90.70
2022-12-18T06:36:16.799Z,91.60
2022-12-18T06:37:17.350Z,65.90
2022-12-18T06:38:16.789Z,55.10
2022-12-18T06:39:16.783Z,48.80
2022-12-18T06:40:16.783Z,47.90
2022-12-18T06:41:16.799Z,51.10
2022-12-18T06:42:16.758Z,59.00
2022-12-18T06:43:17.792Z,59.30
2022-12-18T06:44:16.760Z,61.50
2022-12-18T06:45:16.769Z,48.90
2022-12-18T06:46:16.827Z,49.40
2022-12-18T06:47:16.873Z,46.10
2022-12-18T06:48:16.763Z,49.10
2022-12-18T06:49:16.753Z,46.50
2022-12-18T06:50:16.748Z,43.90
2022-12-18T06:51:16.724Z,48.00
2022-12-18T06:52:16.727Z,45.50
2022-12-18T06:53:16.745Z,46.90
2022-12-18T06:54:16.727Z,42.20
2022-12-18T06:55:16.723Z,43.30
2022-12-18T06:56:16.708Z,44.60
2022-12-18T06:57:16.700Z,41.60
2022-12-18T06:58:16.699Z,42.60
2022-12-18T06:59:16.707Z,41.20
2022-12-18T07:00:16.699Z,45.20
2022-12-18T07:01:16.830Z,45.70
2022-12-18T07:02:16.776Z,40.90
2022-12-18T07:03:16.777Z,39.10
2022-12-18T07:04:16.681Z,39.50
2022-12-18T07:05:16.678Z,35.20
2022-12-18T07:06:16.671Z,30.10
2022-12-18T07:07:16.656Z,34.00
2022-12-18T07:08:16.697Z,40.10
2022-12-18T07:09:16.652Z,32.10
2022-12-18T07:10:16.645Z,38.00
2022-12-18T07:11:16.671Z,41.00
2022-12-18T07:12:16.656Z,42.40
2022-12-18T07:13:16.646Z,43.80
2022-12-18T07:14:16.628Z,45.60
2022-12-18T07:15:16.631Z,38.60
2022-12-18T07:16:23.951Z,37.70
2022-12-18T07:17:18.615Z,35.40
2022-12-18T07:18:16.631Z,38.90
2022-12-18T07:19:16.702Z,45.30
2022-12-18T07:20:16.706Z,43.90
2022-12-18T07:21:16.613Z,45.30
2022-12-18T07:22:16.620Z,44.60
2022-12-18T07:23:17.477Z,46.00
2022-12-18T07:24:16.589Z,59.60
2022-12-18T07:25:16.612Z,73.90
2022-12-18T07:26:16.612Z,80.00
2022-12-18T07:27:16.600Z,57.70
2022-12-18T07:28:17.630Z,47.60
2022-12-18T07:29:17.556Z,53.50
2022-12-18T07:30:16.552Z,48.20
2022-12-18T07:31:16.655Z,48.60
2022-12-18T07:32:16.565Z,47.40
2022-12-18T07:33:16.549Z,47.50
2022-12-18T07:34:16.536Z,49.50
2022-12-18T07:35:19.378Z,51.70
2022-12-18T07:36:18.919Z,51.50
2022-12-18T07:37:16.533Z,46.10
2022-12-18T07:38:16.552Z,47.00
2022-12-18T07:39:16.516Z,49.20
2022-12-18T07:40:16.510Z,60.30
2022-12-18T07:41:16.515Z,58.90
2022-12-18T07:42:16.524Z,66.20
2022-12-18T07:43:16.505Z,68.20
2022-12-18T07:44:16.503Z,63.00
2022-12-18T07:45:16.487Z,53.70
2022-12-18T07:46:16.529Z,53.20
2022-12-18T07:47:16.487Z,51.80
2022-12-18T07:48:16.505Z,47.70
2022-12-18T07:49:16.470Z,50.10
2022-12-18T07:50:16.488Z,51.10
2022-12-18T07:51:16.561Z,52.50
2022-12-18T07:52:19.308Z,56.00
2022-12-18T07:53:17.446Z,59.90
2022-12-18T07:54:16.443Z,51.40
2022-12-18T07:55:16.457Z,48.90
2022-12-18T07:56:31.883Z,49.30
2022-12-18T07:57:48.442Z,49.90
2022-12-18T07:58:18.441Z,51.20
2022-12-18T07:59:16.480Z,48.90
2022-12-18T08:00:16.435Z,48.60
2022-12-18T08:01:16.504Z,50.30
2022-12-18T08:02:16.553Z,51.30
2022-12-18T08:03:16.480Z,54.40
2022-12-18T08:04:16.416Z,51.20
2022-12-18T08:05:16.405Z,52.20
2022-12-18T08:06:16.410Z,49.20
2022-12-18T08:07:16.484Z,48.50
2022-12-18T08:08:16.397Z,50.30
2022-12-18T08:09:16.395Z,49.20
2022-12-18T08:10:16.407Z,51.70
2022-12-18T08:11:16.386Z,48.50
2022-12-18T08:12:16.419Z,49.10
2022-12-18T08:13:16.423Z,51.70
2022-12-18T08:14:16.363Z,49.20
2022-12-18T08:15:16.361Z,49.10
2022-12-18T08:16:16.412Z,48.70
2022-12-18T08:17:16.386Z,51.30
2022-12-18T08:18:16.354Z,54.70
2022-12-18T08:19:16.341Z,46.00
2022-12-18T08:20:16.345Z,45.60
2022-12-18T08:21:16.370Z,49.30
2022-12-18T08:22:16.329Z,54.00
2022-12-18T08:23:16.450Z,53.50
2022-12-18T08:24:16.333Z,49.30
2022-12-18T08:25:16.324Z,51.70
2022-12-18T08:26:16.316Z,76.20
2022-12-18T08:27:31.742Z,92.50
2022-12-18T08:28:18.326Z,94.40
2022-12-18T08:29:21.436Z,100.10
2022-12-18T08:30:17.291Z,94.10
2022-12-18T08:31:16.340Z,101.80
2022-12-18T08:32:16.322Z,100.10
2022-12-18T08:33:16.286Z,118.30
2022-12-18T08:34:16.330Z,161.20
2022-12-18T08:35:18.700Z,201.10
2022-12-18T08:36:17.279Z,208.70
2022-12-18T08:37:16.272Z,199.80
2022-12-18T08:38:16.299Z,188.70
2022-12-18T08:39:16.367Z,184.70
2022-12-18T08:40:16.279Z,187.90
2022-12-18T08:41:16.268Z,190.00
2022-12-18T08:42:16.263Z,180.60
2022-12-18T08:43:16.243Z,170.60
2022-12-18T08:44:16.276Z,178.60
2022-12-18T08:45:16.256Z,187.40
2022-12-18T08:46:16.318Z,188.00
2022-12-18T08:47:16.250Z,180.60
2022-12-18T08:48:20.681Z,184.70
2022-12-18T08:49:18.231Z,187.00
2022-12-18T08:50:16.216Z,169.00
2022-12-18T08:51:16.213Z,156.10
2022-12-18T08:52:16.227Z,148.30
2022-12-18T08:53:16.208Z,146.30
2022-12-18T08:54:16.212Z,151.60
2022-12-18T08:55:16.286Z,150.40
2022-12-18T08:56:16.211Z,150.20
2022-12-18T08:57:16.183Z,149.90
2022-12-18T08:58:16.192Z,153.80
2022-12-18T08:59:19.739Z,146.30
2022-12-18T09:00:17.198Z,145.40
2022-12-18T09:01:16.324Z,137.60
2022-12-18T09:02:16.375Z,135.10
2022-12-18T09:03:16.247Z,138.60
2022-12-18T09:04:16.159Z,141.30
2022-12-18T09:05:16.162Z,150.70
2022-12-18T09:06:16.174Z,152.40
2022-12-18T09:07:16.191Z,167.30
2022-12-18T09:08:16.168Z,170.10
2022-12-18T09:09:16.159Z,171.00
2022-12-18T09:10:16.135Z,144.60
2022-12-18T09:11:16.242Z,99.00
2022-12-18T09:12:16.137Z,90.50
2022-12-18T09:13:16.158Z,71.30
2022-12-18T09:14:16.173Z,60.80
2022-12-18T09:15:16.115Z,63.00
2022-12-18T09:16:16.111Z,82.30
2022-12-18T09:17:16.162Z,70.30
2022-12-18T09:18:16.095Z,76.70
2022-12-18T09:19:16.098Z,86.50
2022-12-18T09:20:16.098Z,91.00
2022-12-18T09:21:16.100Z,111.90
2022-12-18T09:22:16.082Z,117.80
2022-12-18T09:23:16.080Z,120.30
2022-12-18T09:24:16.113Z,98.10
2022-12-18T09:25:16.063Z,113.20
2022-12-18T09:26:16.074Z,110.80
2022-12-18T09:27:16.157Z,116.60
2022-12-18T09:28:16.065Z,111.40
2022-12-18T09:29:16.378Z,112.00
2022-12-18T09:30:16.033Z,105.50
2022-12-18T09:31:16.145Z,103.90
2022-12-18T09:32:21.980Z,92.90
2022-12-18T09:33:18.029Z,84.70
2022-12-18T09:34:16.017Z,81.80
2022-12-18T09:35:16.021Z,70.00
2022-12-18T09:36:16.031Z,59.60
2022-12-18T09:37:16.012Z,50.50
2022-12-18T09:38:16.002Z,51.80
2022-12-18T09:39:15.966Z,55.60
2022-12-18T09:40:15.967Z,53.90
2022-12-18T09:41:15.970Z,50.80
2022-12-18T09:42:15.960Z,52.80
2022-12-18T09:43:16.056Z,48.70
2022-12-18T09:44:15.969Z,48.90
2022-12-18T09:45:16.033Z,49.00
2022-12-18T09:46:15.993Z,51.00
2022-12-18T09:47:15.926Z,48.20
2022-12-18T09:48:15.949Z,46.00
2022-12-18T09:49:15.914Z,46.00
2022-12-18T09:50:17.537Z,51.70
2022-12-18T09:51:16.922Z,54.90
2022-12-18T09:52:15.907Z,55.70
2022-12-18T09:53:15.914Z,56.70
2022-12-18T09:54:15.882Z,59.30
2022-12-18T09:55:15.866Z,57.20
2022-12-18T09:56:15.859Z,61.20
2022-12-18T09:57:15.864Z,58.20
2022-12-18T09:58:15.867Z,50.10
2022-12-18T09:59:15.973Z,48.60
2022-12-18T10:00:15.843Z,45.80
2022-12-18T10:01:15.909Z,41.50
2022-12-18T10:02:15.926Z,40.90
2022-12-18T10:03:15.905Z,39.20
2022-12-18T10:04:15.861Z,47.00
2022-12-18T10:05:15.816Z,43.70
2022-12-18T10:06:15.813Z,44.90
2022-12-18T10:07:15.795Z,49.00
2022-12-18T10:08:15.788Z,50.10
2022-12-18T10:09:41.775Z,52.60
2022-12-18T10:10:15.799Z,43.30
2022-12-18T10:11:15.776Z,42.30
2022-12-18T10:12:15.784Z,40.80
2022-12-18T10:13:15.767Z,41.30
2022-12-18T10:14:15.788Z,40.20
2022-12-18T10:15:15.876Z,36.70
2022-12-18T10:16:15.801Z,36.40
2022-12-18T10:17:15.753Z,36.10
2022-12-18T10:18:20.278Z,34.20
2022-12-18T10:19:17.771Z,34.90
2022-12-18T10:20:15.738Z,34.80
2022-12-18T10:21:15.731Z,37.30
2022-12-18T10:22:15.723Z,36.80
2022-12-18T10:23:15.743Z,36.80
2022-12-18T10:24:15.723Z,34.60
2022-12-18T10:25:15.708Z,35.30
2022-12-18T10:26:15.741Z,31.40
2022-12-18T10:27:16.699Z,32.60
2022-12-18T10:28:15.676Z,33.90
2022-12-18T10:29:15.674Z,35.90
2022-12-18T10:30:15.698Z,34.00
2022-12-18T10:31:15.878Z,34.40
2022-12-18T10:32:15.702Z,36.70
2022-12-18T10:33:15.662Z,39.50
2022-12-18T10:34:15.710Z,37.20
2022-12-18T10:35:15.694Z,39.30
2022-12-18T10:36:15.701Z,36.40
2022-12-18T10:37:15.640Z,38.00
2022-12-18T10:38:15.632Z,39.20
2022-12-18T10:39:15.625Z,37.50
2022-12-18T10:40:21.935Z,40.10
2022-12-18T10:41:17.660Z,42.80
2022-12-18T10:42:15.635Z,43.50
2022-12-18T10:43:15.610Z,44.70
2022-12-18T10:44:15.590Z,46.30
2022-12-18T10:45:16.644Z,50.50
2022-12-18T10:46:15.665Z,51.90
2022-12-18T10:47:15.671Z,48.20
2022-12-18T10:48:15.565Z,46.10
2022-12-18T10:49:15.553Z,45.40
2022-12-18T10:50:15.538Z,45.60
2022-12-18T10:51:15.563Z,43.60
2022-12-18T10:52:15.586Z,42.90
2022-12-18T10:53:15.551Z,47.50
2022-12-18T10:54:15.569Z,52.00
2022-12-18T10:55:15.571Z,45.60
2022-12-18T10:56:15.510Z,47.50
2022-12-18T10:57:15.517Z,45.70
2022-12-18T10:58:15.537Z,47.70
2022-12-18T10:59:15.504Z,47.30
2022-12-18T11:00:15.489Z,45.40
2022-12-18T11:01:15.734Z,46.10
2022-12-18T11:02:16.589Z,49.30
2022-12-18T11:03:15.704Z,49.70
2022-12-18T11:04:15.475Z,46.50
2022-12-18T11:05:15.484Z,46.70
2022-12-18T11:06:15.479Z,44.00
2022-12-18T11:07:15.456Z,45.40
2022-12-18T11:08:15.477Z,40.20
2022-12-18T11:09:15.675Z,38.10
2022-12-18T11:10:16.555Z,36.70
2022-12-18T11:11:15.428Z,38.20
2022-12-18T11:12:15.484Z,40.50
2022-12-18T11:13:15.491Z,41.80
2022-12-18T11:14:15.422Z,40.90
2022-12-18T11:15:15.448Z,36.40
2022-12-18T11:16:15.451Z,33.80
2022-12-18T11:17:30.745Z,28.00
2022-12-18T11:18:17.498Z,28.10
2022-12-18T11:19:15.412Z,34.40
2022-12-18T11:20:15.402Z,86.40
2022-12-18T11:21:15.393Z,61.90
2022-12-18T11:22:15.398Z,51.80
2022-12-18T11:23:15.414Z,43.20
2022-12-18T11:24:15.426Z,34.00
2022-12-18T11:25:32.517Z,26.40
2022-12-18T11:26:17.346Z,26.60
2022-12-18T11:27:15.404Z,26.80
2022-12-18T11:28:15.330Z,24.80
2022-12-18T11:29:15.361Z,25.20
2022-12-18T11:30:15.372Z,25.70
2022-12-18T11:31:15.437Z,23.20
2022-12-18T11:32:15.314Z,23.70
2022-12-18T11:33:15.287Z,24.30
2022-12-18T11:34:30.911Z,23.90
2022-12-18T11:35:17.286Z,26.30
2022-12-18T11:36:15.304Z,23.10
2022-12-18T11:37:15.286Z,26.10
2022-12-18T11:38:15.264Z,25.80
2022-12-18T11:39:15.328Z,24.50
2022-12-18T11:40:15.291Z,25.60
2022-12-18T11:41:15.285Z,22.80
2022-12-18T11:42:15.258Z,24.00
2022-12-18T11:43:15.265Z,23.70
2022-12-18T11:44:15.245Z,27.90
2022-12-18T11:45:15.245Z,25.20
2022-12-18T11:46:19.508Z,25.90
2022-12-18T11:47:16.237Z,27.70
2022-12-18T11:48:15.223Z,27.00
2022-12-18T11:49:15.208Z,28.60
2022-12-18T11:50:15.410Z,28.10
2022-12-18T11:51:15.236Z,29.20
2022-12-18T11:52:15.219Z,28.20
2022-12-18T11:53:15.185Z,26.50
2022-12-18T11:54:15.184Z,25.70
2022-12-18T11:55:15.174Z,25.50
2022-12-18T11:56:15.171Z,24.30
2022-12-18T11:57:15.179Z,29.10
2022-12-18T11:58:15.162Z,25.70
2022-12-18T11:59:15.152Z,24.40
2022-12-18T12:00:15.215Z,24.80
2022-12-18T12:01:15.223Z,30.60
2022-12-18T12:02:15.381Z,36.50
2022-12-18T12:03:15.223Z,31.20
2022-12-18T12:04:15.149Z,36.70
2022-12-18T12:05:15.123Z,31.30
2022-12-18T12:06:15.223Z,27.10
2022-12-18T12:07:15.932Z,29.40
2022-12-18T12:08:15.108Z,27.20
2022-12-18T12:09:15.090Z,25.10
2022-12-18T12:10:15.150Z,27.60
2022-12-18T12:11:15.068Z,24.90
2022-12-18T12:12:15.080Z,25.70
2022-12-18T12:13:15.086Z,24.80
2022-12-18T12:14:15.068Z,25.70
2022-12-18T12:15:15.053Z,25.00
2022-12-18T12:16:15.095Z,26.10
2022-12-18T12:17:15.054Z,26.70
2022-12-18T12:18:15.064Z,25.70
2022-12-18T12:19:15.057Z,24.90
2022-12-18T12:20:15.055Z,26.10
2022-12-18T12:21:15.059Z,25.40
2022-12-18T12:22:15.114Z,25.00
2022-12-18T12:23:15.039Z,26.20
2022-12-18T12:24:15.006Z,26.90
2022-12-18T12:25:15.113Z,27.10
2022-12-18T12:26:14.992Z,25.40
2022-12-18T12:27:15.041Z,26.10
2022-12-18T12:28:15.019Z,27.00
2022-12-18T12:29:20.857Z,26.40
2022-12-18T12:30:16.977Z,25.80
2022-12-18T12:31:14.993Z,25.80
2022-12-18T12:32:14.983Z,25.00
2022-12-18T12:33:14.971Z,25.80
2022-12-18T12:34:14.976Z,26.70
2022-12-18T12:35:14.933Z,26.90
2022-12-18T12:36:14.925Z,26.00
2022-12-18T12:37:14.925Z,25.80
2022-12-18T12:38:15.006Z,26.70
2022-12-18T12:39:14.931Z,26.70
2022-12-18T12:40:48.347Z,27.00
2022-12-18T12:41:16.915Z,26.80
2022-12-18T12:42:14.915Z,30.20
2022-12-18T12:43:14.898Z,27.40
2022-12-18T12:44:14.934Z,29.10
2022-12-18T12:45:15.454Z,30.20
2022-12-18T12:46:14.905Z,30.70
2022-12-18T12:47:14.865Z,25.50
2022-12-18T12:48:14.874Z,30.40
2022-12-18T12:49:14.859Z,30.90
2022-12-18T12:50:14.875Z,32.60
2022-12-18T12:51:14.881Z,31.00
2022-12-18T12:52:14.867Z,30.60